AAL3198 KDFW-KOKC
Flight info
| Callsign | AAL3198 |
|---|---|
| Flight time | 0h 30m |
| Altitude | 20000 |
| Route | BLECO8 ZEMMA TSDEL3 |
| Aircraft | A321/M-SDE3FGHIRWY/LB1 |
Departure
| Time | 2026-05-06 01:42 |
|---|---|
| Airport | Dallas Fort Worth International Airport (KDFW) |
Arrival
| Time | 2026-05-06 02:13 |
|---|---|
| Airport | OKC Will Rogers World Airport (KOKC) |
| Time | Latitude | Longitude | Altitude | Speed | Heading |
|---|---|---|---|---|---|
| 2026-05-06 01:30 | 32.89663 | -97.04567 | 598 ft | 0 kts | 91° |
| 2026-05-06 01:35 | 32.89663 | -97.04569 | 598 ft | 1 kts | 91° |
| 2026-05-06 01:35 | 32.89663 | -97.04589 | 598 ft | 3 kts | 90° |
| 2026-05-06 01:35 | 32.89663 | -97.04613 | 598 ft | 3 kts | 90° |
| 2026-05-06 01:36 | 32.89663 | -97.04633 | 598 ft | 3 kts | 99° |
| 2026-05-06 01:36 | 32.89669 | -97.04654 | 598 ft | 3 kts | 133° |
| 2026-05-06 01:36 | 32.89684 | -97.04665 | 598 ft | 3 kts | 172° |
| 2026-05-06 01:36 | 32.89703 | -97.04667 | 598 ft | 2 kts | 180° |
| 2026-05-06 01:37 | 32.89711 | -97.04666 | 598 ft | 1 kts | 180° |
| 2026-05-06 01:38 | 32.89699 | -97.04667 | 598 ft | 6 kts | 181° |
| 2026-05-06 01:38 | 32.89610 | -97.04668 | 598 ft | 16 kts | 180° |
| 2026-05-06 01:38 | 32.89497 | -97.04669 | 598 ft | 17 kts | 180° |
| 2026-05-06 01:39 | 32.89413 | -97.04758 | 595 ft | 19 kts | 251° |
| 2026-05-06 01:39 | 32.89394 | -97.04863 | 597 ft | 8 kts | 240° |
| 2026-05-06 01:39 | 32.89316 | -97.04888 | 595 ft | 17 kts | 182° |
| 2026-05-06 01:39 | 32.89169 | -97.04890 | 591 ft | 23 kts | 181° |
| 2026-05-06 01:40 | 32.89005 | -97.04891 | 591 ft | 24 kts | 180° |
| 2026-05-06 01:40 | 32.88832 | -97.04892 | 588 ft | 26 kts | 180° |
| 2026-05-06 01:40 | 32.88651 | -97.04895 | 589 ft | 26 kts | 179° |
| 2026-05-06 01:40 | 32.88473 | -97.04893 | 589 ft | 26 kts | 180° |
| 2026-05-06 01:41 | 32.88291 | -97.04894 | 589 ft | 26 kts | 180° |
| 2026-05-06 01:41 | 32.88109 | -97.04895 | 589 ft | 26 kts | 181° |
| 2026-05-06 01:41 | 32.88053 | -97.04965 | 589 ft | 12 kts | 266° |
| 2026-05-06 01:41 | 32.88093 | -97.05080 | 591 ft | 18 kts | 334° |
| 2026-05-06 01:42 | 32.88355 | -97.05090 | 591 ft | 71 kts | 0° |
| 2026-05-06 01:42 | 32.89057 | -97.05085 | 589 ft | 131 kts | 0° |
| 2026-05-06 01:42 | 32.90126 | -97.05081 | 657 ft | 171 kts | 1° |
| 2026-05-06 01:42 | 32.91276 | -97.05087 | 1376 ft | 163 kts | 360° |
| 2026-05-06 01:43 | 32.92398 | -97.05097 | 2002 ft | 162 kts | 359° |
| 2026-05-06 01:43 | 32.93548 | -97.05125 | 2431 ft | 173 kts | 360° |
| 2026-05-06 01:43 | 32.94827 | -97.05153 | 2635 ft | 195 kts | 0° |
| 2026-05-06 01:43 | 32.96259 | -97.05184 | 2793 ft | 216 kts | 357° |
| 2026-05-06 01:44 | 32.97847 | -97.05215 | 2920 ft | 241 kts | 357° |
| 2026-05-06 01:44 | 32.99580 | -97.05244 | 3309 ft | 255 kts | 358° |
| 2026-05-06 01:44 | 33.01391 | -97.05263 | 3799 ft | 265 kts | 358° |
| 2026-05-06 01:44 | 33.03267 | -97.05283 | 4353 ft | 274 kts | 358° |
| 2026-05-06 01:45 | 33.05191 | -97.05302 | 4949 ft | 279 kts | 358° |
| 2026-05-06 01:45 | 33.07140 | -97.05339 | 5589 ft | 280 kts | 353° |
| 2026-05-06 01:45 | 33.09106 | -97.05615 | 6122 ft | 288 kts | 349° |
| 2026-05-06 01:45 | 33.11104 | -97.05916 | 6730 ft | 291 kts | 349° |
| 2026-05-06 01:46 | 33.13124 | -97.06219 | 7376 ft | 293 kts | 348° |
| 2026-05-06 01:46 | 33.15147 | -97.06521 | 8029 ft | 294 kts | 347° |
| 2026-05-06 01:46 | 33.17182 | -97.06817 | 8688 ft | 296 kts | 347° |
| 2026-05-06 01:46 | 33.19210 | -97.07110 | 9292 ft | 298 kts | 346° |
| 2026-05-06 01:47 | 33.21276 | -97.07412 | 9919 ft | 300 kts | 346° |
| 2026-05-06 01:47 | 33.23372 | -97.07724 | 10290 ft | 312 kts | 345° |
| 2026-05-06 01:47 | 33.25590 | -97.08064 | 10410 ft | 332 kts | 346° |
| 2026-05-06 01:47 | 33.27944 | -97.08423 | 10535 ft | 350 kts | 346° |
| 2026-05-06 01:48 | 33.30421 | -97.08790 | 10645 ft | 367 kts | 347° |
| 2026-05-06 01:48 | 33.33019 | -97.09171 | 10771 ft | 383 kts | 347° |
| 2026-05-06 01:48 | 33.35712 | -97.09563 | 10989 ft | 394 kts | 347° |
| 2026-05-06 01:48 | 33.38455 | -97.09957 | 11384 ft | 399 kts | 347° |
| 2026-05-06 01:49 | 33.41222 | -97.10357 | 11835 ft | 402 kts | 347° |
| 2026-05-06 01:49 | 33.44017 | -97.10736 | 12316 ft | 408 kts | 349° |
| 2026-05-06 01:49 | 33.46889 | -97.10697 | 12775 ft | 419 kts | 359° |
| 2026-05-06 01:49 | 33.49803 | -97.10321 | 13237 ft | 424 kts | 360° |
| 2026-05-06 01:50 | 33.52753 | -97.09937 | 13688 ft | 428 kts | 360° |
| 2026-05-06 01:50 | 33.55727 | -97.09555 | 14094 ft | 431 kts | 359° |
| 2026-05-06 01:50 | 33.58716 | -97.09175 | 14508 ft | 433 kts | 359° |
| 2026-05-06 01:50 | 33.61722 | -97.08799 | 14916 ft | 436 kts | 359° |
| 2026-05-06 01:51 | 33.64712 | -97.08428 | 15339 ft | 438 kts | 359° |
| 2026-05-06 01:51 | 33.67750 | -97.08049 | 15760 ft | 441 kts | 359° |
| 2026-05-06 01:51 | 33.70812 | -97.07663 | 16161 ft | 443 kts | 359° |
| 2026-05-06 01:51 | 33.73887 | -97.07270 | 16552 ft | 446 kts | 358° |
| 2026-05-06 01:52 | 33.76980 | -97.06872 | 16957 ft | 448 kts | 358° |
| 2026-05-06 01:52 | 33.80085 | -97.06474 | 17377 ft | 450 kts | 358° |
| 2026-05-06 01:52 | 33.83201 | -97.06077 | 17782 ft | 452 kts | 358° |
| 2026-05-06 01:52 | 33.86336 | -97.05681 | 18175 ft | 454 kts | 358° |
| 2026-05-06 01:53 | 33.89481 | -97.05282 | 18518 ft | 456 kts | 358° |
| 2026-05-06 01:53 | 33.92648 | -97.04878 | 18879 ft | 458 kts | 358° |
| 2026-05-06 01:53 | 33.95820 | -97.04472 | 19236 ft | 460 kts | 358° |
| 2026-05-06 01:53 | 33.99013 | -97.04061 | 19582 ft | 462 kts | 358° |
| 2026-05-06 01:54 | 34.02211 | -97.03652 | 19820 ft | 463 kts | 358° |
| 2026-05-06 01:54 | 34.05452 | -97.03242 | 19853 ft | 473 kts | 358° |
| 2026-05-06 01:54 | 34.08707 | -97.02828 | 19858 ft | 477 kts | 358° |
| 2026-05-06 01:54 | 34.12023 | -97.02402 | 19865 ft | 484 kts | 358° |
| 2026-05-06 01:55 | 34.15386 | -97.01969 | 19868 ft | 488 kts | 358° |
| 2026-05-06 01:55 | 34.18761 | -97.01533 | 19874 ft | 489 kts | 358° |
| 2026-05-06 01:55 | 34.22143 | -97.01093 | 19876 ft | 489 kts | 358° |
| 2026-05-06 01:55 | 34.25523 | -97.00649 | 19879 ft | 489 kts | 358° |
| 2026-05-06 01:56 | 34.28907 | -97.00211 | 19908 ft | 489 kts | 358° |
| 2026-05-06 01:56 | 34.32284 | -96.99785 | 19872 ft | 487 kts | 357° |
| 2026-05-06 01:56 | 34.35626 | -96.99732 | 19878 ft | 476 kts | 347° |
| 2026-05-06 01:56 | 34.38866 | -97.00302 | 19879 ft | 465 kts | 339° |
| 2026-05-06 01:57 | 34.41926 | -97.01425 | 19875 ft | 455 kts | 330° |
| 2026-05-06 01:57 | 34.44756 | -97.03045 | 19871 ft | 447 kts | 323° |
| 2026-05-06 01:57 | 34.47496 | -97.04807 | 19875 ft | 442 kts | 324° |
| 2026-05-06 01:57 | 34.50201 | -97.06537 | 19891 ft | 438 kts | 324° |
| 2026-05-06 01:58 | 34.52870 | -97.08235 | 19730 ft | 425 kts | 324° |
| 2026-05-06 01:58 | 34.55440 | -97.09857 | 19525 ft | 408 kts | 323° |
| 2026-05-06 01:58 | 34.57913 | -97.11417 | 19326 ft | 392 kts | 323° |
| 2026-05-06 01:58 | 34.60280 | -97.12916 | 19220 ft | 375 kts | 323° |
| 2026-05-06 01:59 | 34.62553 | -97.14368 | 18838 ft | 362 kts | 322° |
| 2026-05-06 01:59 | 34.64761 | -97.15793 | 18098 ft | 357 kts | 322° |
| 2026-05-06 01:59 | 34.66946 | -97.17210 | 17246 ft | 354 kts | 322° |
| 2026-05-06 01:59 | 34.69100 | -97.18604 | 16343 ft | 349 kts | 323° |
| 2026-05-06 02:00 | 34.71230 | -97.19979 | 15567 ft | 342 kts | 323° |
| 2026-05-06 02:00 | 34.73325 | -97.21331 | 14995 ft | 341 kts | 323° |
| 2026-05-06 02:00 | 34.75419 | -97.22683 | 14433 ft | 341 kts | 323° |
| 2026-05-06 02:00 | 34.77484 | -97.24017 | 13875 ft | 340 kts | 323° |
| 2026-05-06 02:01 | 34.79559 | -97.25402 | 13287 ft | 339 kts | 322° |
| 2026-05-06 02:01 | 34.81563 | -97.26853 | 12761 ft | 334 kts | 320° |
| 2026-05-06 02:01 | 34.83522 | -97.28338 | 12366 ft | 326 kts | 320° |
| 2026-05-06 02:01 | 34.85403 | -97.29775 | 12233 ft | 312 kts | 319° |
| 2026-05-06 02:02 | 34.87206 | -97.31146 | 12090 ft | 299 kts | 319° |
| 2026-05-06 02:02 | 34.88947 | -97.32469 | 11817 ft | 292 kts | 319° |
| 2026-05-06 02:02 | 34.90653 | -97.33768 | 11572 ft | 288 kts | 319° |
| 2026-05-06 02:02 | 34.92341 | -97.35061 | 11180 ft | 286 kts | 319° |
| 2026-05-06 02:03 | 34.94027 | -97.36358 | 10738 ft | 287 kts | 318° |
| 2026-05-06 02:03 | 34.95717 | -97.37659 | 10285 ft | 287 kts | 319° |
| 2026-05-06 02:03 | 34.97402 | -97.38947 | 9887 ft | 286 kts | 318° |
| 2026-05-06 02:03 | 34.99076 | -97.40225 | 9553 ft | 282 kts | 319° |
| 2026-05-06 02:04 | 35.00737 | -97.41490 | 9134 ft | 280 kts | 319° |
| 2026-05-06 02:04 | 35.02360 | -97.42723 | 8699 ft | 276 kts | 319° |
| 2026-05-06 02:04 | 35.03974 | -97.43950 | 8212 ft | 270 kts | 320° |
| 2026-05-06 02:04 | 35.05554 | -97.45155 | 7702 ft | 265 kts | 320° |
| 2026-05-06 02:05 | 35.07103 | -97.46338 | 7241 ft | 260 kts | 321° |
| 2026-05-06 02:05 | 35.08600 | -97.47530 | 6813 ft | 255 kts | 319° |
| 2026-05-06 02:05 | 35.10041 | -97.48771 | 6411 ft | 252 kts | 318° |
| 2026-05-06 02:05 | 35.11392 | -97.50092 | 6028 ft | 245 kts | 306° |
| 2026-05-06 02:06 | 35.12337 | -97.51813 | 5679 ft | 244 kts | 300° |
| 2026-05-06 02:06 | 35.13237 | -97.53569 | 5329 ft | 243 kts | 300° |
| 2026-05-06 02:06 | 35.13834 | -97.54722 | 5105 ft | 242 kts | 301° |
| 2026-05-06 02:06 | 35.14738 | -97.56456 | 4764 ft | 241 kts | 302° |
| 2026-05-06 02:07 | 35.15926 | -97.58654 | 4696 ft | 220 kts | 309° |
| 2026-05-06 02:07 | 35.16638 | -97.59491 | 4640 ft | 210 kts | 322° |
| 2026-05-06 02:07 | 35.17901 | -97.60299 | 4560 ft | 202 kts | 340° |
| 2026-05-06 02:07 | 35.19293 | -97.60554 | 4482 ft | 205 kts | 356° |
| 2026-05-06 02:08 | 35.20708 | -97.60554 | 4407 ft | 196 kts | 357° |
| 2026-05-06 02:08 | 35.22001 | -97.60552 | 4337 ft | 176 kts | 357° |
| 2026-05-06 02:08 | 35.23188 | -97.60553 | 4168 ft | 165 kts | 359° |
| 2026-05-06 02:08 | 35.24309 | -97.60555 | 3995 ft | 154 kts | 360° |
| 2026-05-06 02:09 | 35.25355 | -97.60557 | 3791 ft | 147 kts | 1° |
| 2026-05-06 02:09 | 35.26366 | -97.60558 | 3587 ft | 145 kts | 4° |
| 2026-05-06 02:09 | 35.27364 | -97.60560 | 3407 ft | 141 kts | 4° |
| 2026-05-06 02:09 | 35.28329 | -97.60561 | 3216 ft | 140 kts | 5° |
| 2026-05-06 02:10 | 35.29299 | -97.60561 | 3025 ft | 140 kts | 4° |
| 2026-05-06 02:10 | 35.30270 | -97.60562 | 2830 ft | 139 kts | 4° |
| 2026-05-06 02:10 | 35.31233 | -97.60563 | 2643 ft | 139 kts | 3° |
| 2026-05-06 02:10 | 35.32205 | -97.60564 | 2448 ft | 140 kts | 4° |
| 2026-05-06 02:11 | 35.33174 | -97.60570 | 2259 ft | 138 kts | 3° |
| 2026-05-06 02:11 | 35.34135 | -97.60569 | 2095 ft | 140 kts | 3° |
| 2026-05-06 02:11 | 35.35103 | -97.60566 | 1909 ft | 139 kts | 1° |
| 2026-05-06 02:11 | 35.36078 | -97.60575 | 1723 ft | 140 kts | 3° |
| 2026-05-06 02:12 | 35.37053 | -97.60568 | 1521 ft | 139 kts | 1° |
| 2026-05-06 02:12 | 35.38034 | -97.60574 | 1320 ft | 141 kts | 3° |
| 2026-05-06 02:12 | 35.38890 | -97.60571 | 1297 ft | 108 kts | 0° |
| 2026-05-06 02:12 | 35.39480 | -97.60574 | 1289 ft | 55 kts | 359° |
| 2026-05-06 02:13 | 35.39693 | -97.60575 | 1289 ft | 26 kts | 1° |
| 2026-05-06 02:13 | 35.39827 | -97.60564 | 1290 ft | 17 kts | 5° |